Time;durP1;ratioP1;P1;durP2;ratioP2;P2;SDS_P1;SDS_P2;PMS_P1;PMS_P2;Temp;Humidity;BMP_temperature;BMP_pressure;BME280_temperature;BME280_humidity;BME280_pressure;Samples;Min_cycle;Max_cycle;Signal;HPM_P1;HPM_P2
2022/07/14 00:04:55;;;;;;;6.90;2.92;;;;;;;;;;10530708;28;20498;-84
2022/07/14 00:09:57;;;;;;;4.22;2.90;;;;;;;;;;10529788;28;20398;-86
2022/07/14 00:14:59;;;;;;;5.20;2.80;;;;;;;;;;10530280;28;20416;-85
2022/07/14 00:20:02;;;;;;;5.70;3.30;;;;;;;;;;10529677;28;20948;-85
2022/07/14 00:25:04;;;;;;;3.87;2.93;;;;;;;;;;10524474;28;20420;-86
2022/07/14 00:30:07;;;;;;;5.85;4.25;;;;;;;;;;10531978;28;20482;-85
2022/07/14 00:35:11;;;;;;;7.57;4.30;;;;;;;;;;10534910;28;20575;-86
2022/07/14 00:40:13;;;;;;;6.07;4.50;;;;;;;;;;10538050;28;20967;-87
2022/07/14 00:45:17;;;;;;;5.72;4.30;;;;;;;;;;10541706;28;20445;-85
2022/07/14 00:50:21;;;;;;;5.43;4.20;;;;;;;;;;10548724;28;20487;-85
2022/07/14 00:55:23;;;;;;;7.90;4.38;;;;;;;;;;10547666;28;20390;-85
2022/07/14 01:00:24;;;;;;;4.38;3.95;;;;;;;;;;10545563;28;20403;-86
2022/07/14 01:05:28;;;;;;;5.97;3.67;;;;;;;;;;10545358;28;20912;-85
2022/07/14 01:10:30;;;;;;;7.03;4.00;;;;;;;;;;10544356;28;20790;-86
2022/07/14 01:15:32;;;;;;;4.63;3.65;;;;;;;;;;10545316;28;20406;-85
2022/07/14 01:20:35;;;;;;;5.63;3.90;;;;;;;;;;10546683;28;20398;-86
2022/07/14 01:25:39;;;;;;;6.47;3.37;;;;;;;;;;10544112;28;20429;-86
2022/07/14 01:30:40;;;;;;;4.63;3.53;;;;;;;;;;10540377;28;20410;-86
2022/07/14 01:35:42;;;;;;;4.97;3.58;;;;;;;;;;10531056;28;20447;-86
2022/07/14 01:40:45;;;;;;;6.23;3.40;;;;;;;;;;10545992;28;20491;-86
2022/07/14 01:45:47;;;;;;;5.10;3.50;;;;;;;;;;10543394;28;20427;-85
2022/07/14 01:50:49;;;;;;;6.45;3.67;;;;;;;;;;10538635;28;20475;-85
2022/07/14 01:55:52;;;;;;;6.33;3.70;;;;;;;;;;10544151;28;20885;-86
2022/07/14 02:06:10;;;;;;;5.37;4.10;;;;;;;;;;10523948;28;20426;-86
2022/07/14 02:16:33;;;;;;;6.00;4.30;;;;;;;;;;10528921;28;20785;-86
2022/07/14 02:21:35;;;;;;;5.70;4.20;;;;;;;;;;10524343;28;20508;-85
2022/07/14 02:26:38;;;;;;;6.13;4.18;;;;;;;;;;10526939;28;20445;-84
2022/07/14 02:31:42;;;;;;;7.57;4.97;;;;;;;;;;10521562;28;20732;-85
2022/07/14 02:36:44;;;;;;;6.80;5.20;;;;;;;;;;10521697;28;21054;-84
2022/07/14 02:41:47;;;;;;;6.47;5.57;;;;;;;;;;10521776;28;20401;-84
2022/07/14 02:46:49;;;;;;;6.70;4.93;;;;;;;;;;10521728;28;20426;-86
2022/07/14 02:51:52;;;;;;;6.30;5.40;;;;;;;;;;10526358;28;20408;-85
2022/07/14 02:56:55;;;;;;;7.00;6.30;;;;;;;;;;10528077;28;20403;-84
2022/07/14 03:01:57;;;;;;;6.97;6.10;;;;;;;;;;10518346;28;20464;-84
2022/07/14 03:06:59;;;;;;;6.25;5.57;;;;;;;;;;10525833;28;20517;-84
2022/07/14 03:12:02;;;;;;;6.30;5.40;;;;;;;;;;10525088;28;20499;-85
2022/07/14 03:17:04;;;;;;;7.72;5.10;;;;;;;;;;10526027;28;20483;-86
2022/07/14 03:22:05;;;;;;;6.87;5.10;;;;;;;;;;10522015;28;20412;-85
2022/07/14 03:27:09;;;;;;;8.32;4.25;;;;;;;;;;10525245;28;20422;-85
2022/07/14 03:32:12;;;;;;;5.00;4.47;;;;;;;;;;10526604;28;20406;-85
2022/07/14 03:37:13;;;;;;;8.32;4.50;;;;;;;;;;10532705;28;20406;-86
2022/07/14 03:42:17;;;;;;;5.33;4.50;;;;;;;;;;10537542;28;20398;-86
2022/07/14 03:47:18;;;;;;;6.63;4.50;;;;;;;;;;10536017;28;20505;-86
2022/07/14 03:52:20;;;;;;;5.23;4.27;;;;;;;;;;10536392;28;20471;-85
2022/07/14 03:57:24;;;;;;;5.53;4.13;;;;;;;;;;10536846;28;20435;-86
2022/07/14 04:02:26;;;;;;;6.45;4.13;;;;;;;;;;10531728;28;20782;-86
2022/07/14 04:07:28;;;;;;;5.30;4.32;;;;;;;;;;10526019;28;21474;-86
2022/07/14 04:12:31;;;;;;;5.05;4.55;;;;;;;;;;10547575;28;20451;-85
2022/07/14 04:17:33;;;;;;;4.68;4.25;;;;;;;;;;10554119;28;20452;-85
2022/07/14 04:22:34;;;;;;;5.88;3.92;;;;;;;;;;10548014;28;20494;-85
2022/07/14 04:27:38;;;;;;;5.78;3.85;;;;;;;;;;10544876;28;21256;-85
2022/07/14 04:32:40;;;;;;;6.32;3.80;;;;;;;;;;10549207;28;20834;-85
2022/07/14 04:37:42;;;;;;;6.82;4.05;;;;;;;;;;10544260;28;20434;-86
2022/07/14 04:42:45;;;;;;;4.60;3.70;;;;;;;;;;10543285;28;20726;-86
2022/07/14 04:47:47;;;;;;;4.40;3.83;;;;;;;;;;10548490;28;20415;-84
2022/07/14 04:52:50;;;;;;;5.57;3.90;;;;;;;;;;10546515;28;20402;-85
2022/07/14 04:57:53;;;;;;;8.23;4.10;;;;;;;;;;10560357;28;21421;-84
2022/07/14 05:02:55;;;;;;;5.93;3.78;;;;;;;;;;10552366;28;20434;-84
2022/07/14 05:07:57;;;;;;;4.63;4.10;;;;;;;;;;10544015;28;20897;-85
2022/07/14 05:13:00;;;;;;;10.27;3.95;;;;;;;;;;10550915;28;20876;-85
2022/07/14 05:18:01;;;;;;;4.33;3.73;;;;;;;;;;10553062;28;20930;-82
2022/07/14 05:23:03;;;;;;;4.67;3.50;;;;;;;;;;10553084;28;20981;-85
2022/07/14 05:28:07;;;;;;;4.55;3.88;;;;;;;;;;10552502;28;20421;-83
2022/07/14 05:33:08;;;;;;;5.83;4.27;;;;;;;;;;10549107;28;20401;-84
2022/07/14 05:38:10;;;;;;;6.50;4.70;;;;;;;;;;10545002;28;20407;-84
2022/07/14 05:43:14;;;;;;;4.70;4.20;;;;;;;;;;10543779;28;20397;-84
2022/07/14 05:48:15;;;;;;;6.13;3.87;;;;;;;;;;10541191;28;20476;-84
2022/07/14 05:53:17;;;;;;;4.77;3.70;;;;;;;;;;10524670;28;20508;-84
2022/07/14 05:58:21;;;;;;;6.22;3.75;;;;;;;;;;10549960;28;20433;-84
2022/07/14 06:03:23;;;;;;;6.10;3.20;;;;;;;;;;10543919;28;20905;-84
2022/07/14 06:08:25;;;;;;;6.95;3.75;;;;;;;;;;10539805;28;20417;-83
2022/07/14 06:13:30;;;;;;;5.87;3.43;;;;;;;;;;10543221;28;20412;-84
2022/07/14 06:18:31;;;;;;;6.87;3.20;;;;;;;;;;10543529;28;20390;-73
2022/07/14 06:23:33;;;;;;;3.55;2.72;;;;;;;;;;10540193;28;20500;-73
2022/07/14 06:28:37;;;;;;;4.55;2.90;;;;;;;;;;10539226;28;20510;-74
2022/07/14 06:33:39;;;;;;;4.20;2.65;;;;;;;;;;10544086;28;20398;-73
2022/07/14 06:38:41;;;;;;;8.98;3.60;;;;;;;;;;10550209;28;20403;-73
2022/07/14 06:43:44;;;;;;;4.65;3.10;;;;;;;;;;10545449;28;20501;-73
2022/07/14 06:48:46;;;;;;;4.73;2.73;;;;;;;;;;10549886;28;20418;-73
2022/07/14 06:53:47;;;;;;;6.88;2.60;;;;;;;;;;10529077;28;20402;-74
2022/07/14 06:58:51;;;;;;;3.50;2.50;;;;;;;;;;10551515;28;20409;-74
2022/07/14 07:03:53;;;;;;;5.50;2.63;;;;;;;;;;10547231;28;20791;-73
2022/07/14 07:08:55;;;;;;;6.60;2.38;;;;;;;;;;10539020;28;20514;-74
2022/07/14 07:13:58;;;;;;;5.78;2.50;;;;;;;;;;10549422;28;20401;-75
2022/07/14 07:19:00;;;;;;;5.57;2.05;;;;;;;;;;10545205;28;20839;-73
2022/07/14 07:24:01;;;;;;;4.50;2.13;;;;;;;;;;10539676;28;20487;-74
2022/07/14 07:29:05;;;;;;;3.53;2.22;;;;;;;;;;10546844;28;20418;-75
2022/07/14 07:34:07;;;;;;;3.35;2.05;;;;;;;;;;10543700;28;20397;-74
2022/07/14 07:39:09;;;;;;;4.17;2.20;;;;;;;;;;10546548;28;20406;-74
2022/07/14 07:44:12;;;;;;;4.90;2.47;;;;;;;;;;10552646;28;20394;-74
2022/07/14 07:49:14;;;;;;;6.10;2.72;;;;;;;;;;10551917;28;20529;-74
2022/07/14 07:54:16;;;;;;;6.40;2.50;;;;;;;;;;10542231;28;20405;-73
2022/07/14 07:59:19;;;;;;;3.60;2.53;;;;;;;;;;10545323;28;20507;-73
2022/07/14 08:04:22;;;;;;;3.90;2.80;;;;;;;;;;10545563;28;20494;-74
2022/07/14 08:09:23;;;;;;;3.63;2.45;;;;;;;;;;10539031;28;20925;-74
2022/07/14 08:19:47;;;;;;;5.17;2.30;;;;;;;;;;10529728;28;20387;-85
2022/07/14 08:24:49;;;;;;;4.10;2.30;;;;;;;;;;10516094;28;20489;-84
2022/07/14 08:29:52;;;;;;;4.00;2.05;;;;;;;;;;10533405;28;21275;-84
2022/07/14 08:34:54;;;;;;;4.10;2.13;;;;;;;;;;10543273;28;20399;-85
2022/07/14 08:39:56;;;;;;;4.33;2.10;;;;;;;;;;10514000;28;20485;-84
2022/07/14 08:44:59;;;;;;;3.25;1.85;;;;;;;;;;10512537;28;20937;-84
2022/07/14 08:50:02;;;;;;;3.60;2.20;;;;;;;;;;10519197;28;20427;-84
2022/07/14 08:55:07;;;;;;;4.45;1.92;;;;;;;;;;10532999;28;20405;-84
2022/07/14 09:00:13;;;;;;;4.88;2.60;;;;;;;;;;10537525;28;20412;-85
2022/07/14 09:05:16;;;;;;;5.40;2.63;;;;;;;;;;10535128;28;20406;-84
2022/07/14 09:10:18;;;;;;;6.18;2.33;;;;;;;;;;10525275;28;20420;-85
2022/07/14 09:20:49;;;;;;;9.67;2.87;;;;;;;;;;10511174;28;20429;-84
2022/07/14 09:25:51;;;;;;;9.77;2.77;;;;;;;;;;10531181;28;20438;-84
2022/07/14 09:30:54;;;;;;;2.25;2.05;;;;;;;;;;10535801;28;20755;-84
2022/07/14 09:35:56;;;;;;;5.47;2.70;;;;;;;;;;10525202;28;20408;-85
2022/07/14 09:41:09;;;;;;;3.97;2.50;;;;;;;;;;10526983;28;20901;-84
2022/07/14 09:46:14;;;;;;;4.67;2.40;;;;;;;;;;10524254;28;20394;-84
2022/07/14 09:51:16;;;;;;;2.45;2.15;;;;;;;;;;10524782;28;20428;-83
2022/07/14 09:56:18;;;;;;;3.38;2.15;;;;;;;;;;10526195;28;20404;-84
2022/07/14 10:01:23;;;;;;;4.45;2.30;;;;;;;;;;10511600;28;20442;-86
2022/07/14 10:06:27;;;;;;;2.93;2.10;;;;;;;;;;10501006;28;20965;-85
2022/07/14 10:11:30;;;;;;;3.00;2.10;;;;;;;;;;10511296;28;20643;-85
2022/07/14 10:16:34;;;;;;;3.13;2.13;;;;;;;;;;10512122;28;20409;-85
2022/07/14 10:21:38;;;;;;;3.80;2.10;;;;;;;;;;10504171;28;20816;-84
2022/07/14 10:26:40;;;;;;;3.17;2.20;;;;;;;;;;10503934;28;20963;-86
2022/07/14 10:31:59;;;;;;;3.72;2.10;;;;;;;;;;10516050;28;20474;-86
2022/07/14 10:37:09;;;;;;;3.85;2.03;;;;;;;;;;10512252;28;20555;-85
2022/07/14 10:42:18;;;;;;;3.63;2.20;;;;;;;;;;10521956;28;20413;-86
2022/07/14 10:47:24;;;;;;;3.77;2.07;;;;;;;;;;10520864;28;20408;-85
2022/07/14 10:52:27;;;;;;;4.07;2.20;;;;;;;;;;10526194;28;20411;-85
2022/07/14 10:57:29;;;;;;;2.80;2.30;;;;;;;;;;10539520;28;20394;-85
2022/07/14 11:02:36;;;;;;;2.67;2.10;;;;;;;;;;10540408;28;20789;-87
2022/07/14 11:07:40;;;;;;;3.50;2.10;;;;;;;;;;10531423;28;20750;-86
2022/07/14 11:13:09;;;;;;;2.07;1.70;;;;;;;;;;10517380;28;20395;-86
2022/07/14 11:18:28;;;;;;;2.75;1.55;;;;;;;;;;10535184;28;20399;-86
2022/07/14 11:23:32;;;;;;;2.45;1.70;;;;;;;;;;10523184;28;20899;-86
2022/07/14 11:28:42;;;;;;;3.37;1.70;;;;;;;;;;10523393;28;20429;-86
2022/07/14 11:39:22;;;;;;;2.80;1.80;;;;;;;;;;10515050;28;20397;-86
2022/07/14 11:44:46;;;;;;;1.97;1.80;;;;;;;;;;10513248;28;20895;-86
2022/07/14 11:49:55;;;;;;;2.50;1.80;;;;;;;;;;10506855;28;20518;-85
2022/07/14 11:54:58;;;;;;;2.40;1.93;;;;;;;;;;10516903;28;20399;-84
2022/07/14 12:00:07;;;;;;;2.42;1.90;;;;;;;;;;10527032;28;20792;-85
2022/07/14 12:05:12;;;;;;;2.47;2.03;;;;;;;;;;10525003;28;20479;-84
2022/07/14 12:10:15;;;;;;;2.30;2.10;;;;;;;;;;10527270;28;20850;-85
2022/07/14 12:15:23;;;;;;;3.03;2.20;;;;;;;;;;10527756;28;20507;-85
2022/07/14 12:20:35;;;;;;;4.50;2.38;;;;;;;;;;10528166;28;20405;-85
2022/07/14 12:25:39;;;;;;;4.33;2.20;;;;;;;;;;10520892;28;20479;-85
2022/07/14 12:30:46;;;;;;;3.03;2.30;;;;;;;;;;10517626;28;20509;-83
2022/07/14 12:35:52;;;;;;;2.63;2.30;;;;;;;;;;10516191;28;20418;-85
2022/07/14 12:40:57;;;;;;;3.70;2.50;;;;;;;;;;10511409;28;20405;-84
2022/07/14 12:46:07;;;;;;;4.03;2.50;;;;;;;;;;10519407;28;20427;-84
2022/07/14 12:51:26;;;;;;;3.65;2.47;;;;;;;;;;10510440;28;20458;-84
2022/07/14 12:56:30;;;;;;;3.05;2.42;;;;;;;;;;10519558;28;20396;-85
2022/07/14 13:01:33;;;;;;;2.60;2.40;;;;;;;;;;10534219;28;20779;-85
2022/07/14 13:06:45;;;;;;;6.95;2.72;;;;;;;;;;10514795;28;20406;-84
2022/07/14 13:11:47;;;;;;;3.60;2.60;;;;;;;;;;10514925;28;20505;-84
2022/07/14 13:16:50;;;;;;;3.57;2.50;;;;;;;;;;10518973;28;20416;-84
2022/07/14 13:22:00;;;;;;;3.03;2.65;;;;;;;;;;10507593;28;20398;-84
2022/07/14 13:27:06;;;;;;;2.90;2.42;;;;;;;;;;10512174;28;20491;-86
2022/07/14 13:32:08;;;;;;;2.72;2.50;;;;;;;;;;10508593;28;20619;-85
2022/07/14 13:37:15;;;;;;;3.73;2.30;;;;;;;;;;10515245;28;20414;-85
2022/07/14 13:42:17;;;;;;;3.03;2.30;;;;;;;;;;10543192;28;20467;-85
2022/07/14 13:47:19;;;;;;;3.05;2.30;;;;;;;;;;10552989;28;20426;-84
2022/07/14 13:52:22;;;;;;;4.80;2.40;;;;;;;;;;10542930;28;20425;-84
2022/07/14 13:57:24;;;;;;;4.40;2.45;;;;;;;;;;10537951;28;20442;-86
2022/07/14 14:03:22;;;;;;;2.58;2.17;;;;;;;;;;10544947;28;20393;-84
2022/07/14 14:07:49;;;;;;;4.27;2.53;;;;;;;;;;10539308;28;20874;-86
2022/07/14 14:12:51;;;;;;;4.38;2.30;;;;;;;;;;10542369;28;20403;-85
2022/07/14 14:17:53;;;;;;;2.72;2.33;;;;;;;;;;10525039;28;20398;-85
2022/07/14 14:22:56;;;;;;;3.25;2.22;;;;;;;;;;10520818;28;20483;-84
2022/07/14 14:27:58;;;;;;;4.00;2.40;;;;;;;;;;10508018;28;20496;-85
2022/07/14 14:33:00;;;;;;;3.53;2.20;;;;;;;;;;10516437;28;20406;-85
2022/07/14 14:38:06;;;;;;;4.75;2.35;;;;;;;;;;10510377;28;20422;-85
2022/07/14 14:43:09;;;;;;;2.90;2.20;;;;;;;;;;10519882;28;20397;-84
2022/07/14 14:48:11;;;;;;;3.70;2.20;;;;;;;;;;10523109;28;20775;-85
2022/07/14 14:53:14;;;;;;;4.57;2.20;;;;;;;;;;10518012;28;20485;-84
2022/07/14 14:58:16;;;;;;;3.33;2.30;;;;;;;;;;10525616;28;20410;-85
2022/07/14 15:03:18;;;;;;;3.35;2.55;;;;;;;;;;10549944;28;20396;-85
2022/07/14 15:08:21;;;;;;;3.75;2.58;;;;;;;;;;10531245;28;20439;-85
2022/07/14 15:13:23;;;;;;;4.10;2.40;;;;;;;;;;10543970;28;20401;-86
2022/07/14 15:18:25;;;;;;;3.47;2.33;;;;;;;;;;10538895;28;20399;-84
2022/07/14 15:23:28;;;;;;;2.25;2.10;;;;;;;;;;10528246;28;20496;-85
2022/07/14 15:28:30;;;;;;;3.17;1.45;;;;;;;;;;10541280;28;20406;-85
2022/07/14 15:33:32;;;;;;;1.85;1.20;;;;;;;;;;10526373;28;20408;-84
2022/07/14 15:41:14;;;;;;;2.20;1.30;;;;;;;;;;10506367;28;20417;-84
2022/07/14 15:43:57;;;;;;;3.10;1.40;;;;;;;;;;10527479;28;20381;-84
2022/07/14 15:48:59;;;;;;;2.97;1.37;;;;;;;;;;10525166;28;20409;-84
2022/07/14 15:54:02;;;;;;;3.60;1.50;;;;;;;;;;10507771;28;20398;-84
2022/07/14 15:59:06;;;;;;;2.47;1.42;;;;;;;;;;10515417;28;20400;-84
2022/07/14 16:04:08;;;;;;;2.50;1.17;;;;;;;;;;10527086;28;20480;-84
2022/07/14 16:09:12;;;;;;;3.67;1.20;;;;;;;;;;10537908;28;20406;-83
2022/07/14 16:14:14;;;;;;;3.30;1.20;;;;;;;;;;10536187;28;20398;-82
2022/07/14 16:19:16;;;;;;;1.77;1.20;;;;;;;;;;10547771;28;20394;-83
2022/07/14 16:24:19;;;;;;;1.88;1.02;;;;;;;;;;10534414;28;20478;-84
2022/07/14 16:29:21;;;;;;;0.90;0.90;;;;;;;;;;10531915;28;20466;-83
2022/07/14 16:34:23;;;;;;;1.35;1.08;;;;;;;;;;10538593;28;20882;-83
2022/07/14 16:39:26;;;;;;;1.10;1.00;;;;;;;;;;10528697;28;20828;-83
2022/07/14 16:44:28;;;;;;;1.40;0.80;;;;;;;;;;10532946;28;20394;-82
2022/07/14 16:49:30;;;;;;;2.50;1.00;;;;;;;;;;10531533;28;20507;-83
2022/07/14 16:54:33;;;;;;;3.50;1.00;;;;;;;;;;10519252;28;20502;-84
2022/07/14 16:59:35;;;;;;;2.80;1.00;;;;;;;;;;10524623;28;20406;-85
2022/07/14 17:04:37;;;;;;;3.10;1.20;;;;;;;;;;10539056;28;20487;-82
2022/07/14 17:09:40;;;;;;;1.98;1.00;;;;;;;;;;10533771;28;20420;-84
2022/07/14 17:14:42;;;;;;;0.80;0.80;;;;;;;;;;10525680;28;20395;-83
2022/07/14 17:19:44;;;;;;;2.60;0.90;;;;;;;;;;10524222;28;20403;-84
2022/07/14 17:24:47;;;;;;;2.20;1.00;;;;;;;;;;10528534;28;20403;-84
2022/07/14 17:29:49;;;;;;;1.00;1.00;;;;;;;;;;10543962;28;21010;-83
2022/07/14 17:34:51;;;;;;;1.48;1.00;;;;;;;;;;10541947;28;20460;-83
2022/07/14 17:39:55;;;;;;;2.10;1.10;;;;;;;;;;10522628;28;20398;-83
2022/07/14 17:44:57;;;;;;;2.88;0.98;;;;;;;;;;10544761;28;20409;-85
2022/07/14 17:49:59;;;;;;;1.75;0.98;;;;;;;;;;10523195;28;20418;-83
2022/07/14 17:55:02;;;;;;;3.50;1.20;;;;;;;;;;10528397;28;20417;-84
2022/07/14 18:00:05;;;;;;;1.80;0.90;;;;;;;;;;10508543;28;20417;-84
2022/07/14 18:05:08;;;;;;;1.33;0.93;;;;;;;;;;10501498;28;20840;-84
2022/07/14 18:10:13;;;;;;;1.23;0.93;;;;;;;;;;10501609;28;20570;-83
2022/07/14 18:15:15;;;;;;;1.70;0.90;;;;;;;;;;10508735;28;20481;-85
2022/07/14 18:20:19;;;;;;;1.15;0.98;;;;;;;;;;10512879;28;20420;-84
2022/07/14 18:25:22;;;;;;;2.05;1.00;;;;;;;;;;10515081;27;20408;-85
2022/07/14 18:30:24;;;;;;;2.15;1.77;;;;;;;;;;10518432;28;20466;-84
2022/07/14 18:35:26;;;;;;;2.90;1.90;;;;;;;;;;10512977;28;20408;-83
2022/07/14 18:40:29;;;;;;;4.03;3.03;;;;;;;;;;10523079;28;20908;-82
2022/07/14 18:50:51;;;;;;;6.28;4.20;;;;;;;;;;10520543;28;20416;-83
2022/07/14 18:55:54;;;;;;;5.00;4.10;;;;;;;;;;10530192;28;20415;-83
2022/07/14 19:00:55;;;;;;;2.90;1.83;;;;;;;;;;10534945;28;20510;-84
2022/07/14 19:05:58;;;;;;;2.50;1.30;;;;;;;;;;10521279;28;20512;-84
2022/07/14 19:11:02;;;;;;;3.28;1.70;;;;;;;;;;10536365;28;20505;-82
2022/07/14 19:16:05;;;;;;;4.47;1.20;;;;;;;;;;10530439;28;20405;-82
2022/07/14 19:21:07;;;;;;;1.90;1.20;;;;;;;;;;10538331;28;20509;-83
2022/07/14 19:26:10;;;;;;;2.92;1.33;;;;;;;;;;10534811;28;20576;-82
2022/07/14 19:31:13;;;;;;;1.40;1.00;;;;;;;;;;10530474;28;20928;-83
2022/07/14 19:36:15;;;;;;;1.80;1.10;;;;;;;;;;10535306;28;20395;-82
2022/07/14 19:41:18;;;;;;;2.10;1.00;;;;;;;;;;10544879;28;20484;-83
2022/07/14 19:46:20;;;;;;;2.42;1.17;;;;;;;;;;10546391;28;20396;-82
2022/07/14 19:51:22;;;;;;;1.83;1.10;;;;;;;;;;10538965;28;20532;-82
2022/07/14 19:56:25;;;;;;;3.13;1.25;;;;;;;;;;10520812;28;20394;-82
2022/07/14 20:01:27;;;;;;;2.65;1.40;;;;;;;;;;10531114;28;20405;-82
2022/07/14 20:06:29;;;;;;;2.97;1.38;;;;;;;;;;10539161;28;20776;-82
2022/07/14 20:11:33;;;;;;;3.30;1.40;;;;;;;;;;10536031;28;20509;-82
2022/07/14 20:16:35;;;;;;;1.98;1.50;;;;;;;;;;10533753;28;20488;-82
2022/07/14 20:21:38;;;;;;;3.08;1.70;;;;;;;;;;10535356;28;20807;-83
2022/07/14 20:26:41;;;;;;;3.27;1.60;;;;;;;;;;10530799;28;20483;-83
2022/07/14 20:37:03;;;;;;;2.35;1.50;;;;;;;;;;10535749;28;20746;-82
2022/07/14 20:42:06;;;;;;;2.35;1.45;;;;;;;;;;10534577;28;20395;-81
2022/07/14 20:47:14;;;;;;;5.47;1.67;;;;;;;;;;10537415;28;20408;-82
2022/07/14 20:52:17;;;;;;;3.35;1.45;;;;;;;;;;10545171;28;20410;-82
2022/07/14 20:57:20;;;;;;;3.25;1.48;;;;;;;;;;10540732;28;20425;-83
2022/07/14 21:02:23;;;;;;;2.45;1.70;;;;;;;;;;10548330;28;20942;-82
2022/07/14 21:07:26;;;;;;;5.57;1.80;;;;;;;;;;10521223;28;20405;-82
2022/07/14 21:12:29;;;;;;;3.33;1.57;;;;;;;;;;10517208;28;20424;-83
2022/07/14 21:17:31;;;;;;;3.47;1.53;;;;;;;;;;10506388;28;20395;-83
2022/07/14 21:22:33;;;;;;;2.70;1.65;;;;;;;;;;10508606;28;20421;-83
2022/07/14 21:27:36;;;;;;;3.50;1.80;;;;;;;;;;10514208;28;20398;-83
2022/07/14 21:32:38;;;;;;;4.47;1.80;;;;;;;;;;10523168;28;20551;-83
2022/07/14 21:37:40;;;;;;;5.10;2.10;;;;;;;;;;10536893;28;20900;-83
2022/07/14 21:42:44;;;;;;;3.50;1.98;;;;;;;;;;10534578;28;20610;-83
2022/07/14 21:47:45;;;;;;;3.33;1.65;;;;;;;;;;10532315;28;20850;-83
2022/07/14 21:52:47;;;;;;;3.28;2.15;;;;;;;;;;10531881;28;20510;-84
2022/07/14 21:57:50;;;;;;;2.20;1.53;;;;;;;;;;10519020;28;20490;-84
2022/07/14 22:02:52;;;;;;;4.00;1.80;;;;;;;;;;10517044;28;20510;-81
2022/07/14 22:07:54;;;;;;;3.10;2.10;;;;;;;;;;10519051;28;20976;-80
2022/07/14 22:12:58;;;;;;;4.40;1.98;;;;;;;;;;10537411;28;21100;-80
2022/07/14 22:18:00;;;;;;;2.45;1.90;;;;;;;;;;10534196;28;20402;-84
2022/07/14 22:23:03;;;;;;;3.50;1.98;;;;;;;;;;10533329;28;20761;-85
2022/07/14 22:28:06;;;;;;;3.80;2.38;;;;;;;;;;10532307;28;20829;-84
2022/07/14 22:33:08;;;;;;;4.97;2.90;;;;;;;;;;10522126;28;20545;-85
2022/07/14 22:38:10;;;;;;;5.55;3.47;;;;;;;;;;10523443;28;20446;-83
2022/07/14 22:43:14;;;;;;;9.55;6.05;;;;;;;;;;10527273;28;20916;-85
2022/07/14 22:48:16;;;;;;;10.25;6.03;;;;;;;;;;10528019;28;20412;-85
2022/07/14 22:53:18;;;;;;;8.18;5.47;;;;;;;;;;10517380;28;20424;-84
2022/07/14 22:58:21;;;;;;;11.82;6.85;;;;;;;;;;10522811;28;20400;-84
2022/07/14 23:03:23;;;;;;;7.40;4.95;;;;;;;;;;10456004;22;20504;-86
2022/07/14 23:08:25;;;;;;;5.03;2.50;;;;;;;;;;10402924;28;20901;-86
2022/07/14 23:13:28;;;;;;;7.43;3.10;;;;;;;;;;10402829;28;20506;-85
2022/07/14 23:18:30;;;;;;;5.43;4.18;;;;;;;;;;10404406;28;20395;-86
2022/07/14 23:23:32;;;;;;;8.70;5.40;;;;;;;;;;10401713;28;20774;-86
2022/07/14 23:28:35;;;;;;;6.93;4.90;;;;;;;;;;10395411;28;20401;-85
2022/07/14 23:33:37;;;;;;;6.40;4.85;;;;;;;;;;10398637;28;20507;-85
2022/07/14 23:38:39;;;;;;;6.60;5.10;;;;;;;;;;10397348;28;20868;-85
2022/07/14 23:43:42;;;;;;;5.85;5.10;;;;;;;;;;10401339;28;20803;-86
2022/07/14 23:48:44;;;;;;;7.70;5.30;;;;;;;;;;10402061;28;20409;-87
2022/07/14 23:53:47;;;;;;;8.00;4.47;;;;;;;;;;10406090;28;20421;-87
2022/07/14 23:58:50;;;;;;;5.93;4.53;;;;;;;;;;10410163;28;20882;-87
